createdAt,value
2023-08-15T00:17:49.898Z,8.80
2023-08-15T00:20:17.604Z,8.90
2023-08-15T00:22:44.929Z,8.70
2023-08-15T00:25:12.272Z,9.90
2023-08-15T00:27:39.661Z,10.50
2023-08-15T00:30:07.896Z,10.30
2023-08-15T00:32:37.198Z,9.40
2023-08-15T00:35:05.351Z,8.50
2023-08-15T00:37:33.453Z,8.30
2023-08-15T00:40:01.316Z,8.80
2023-08-15T00:42:28.681Z,8.60
2023-08-15T00:44:56.181Z,8.80
2023-08-15T00:47:23.771Z,8.70
2023-08-15T00:49:52.970Z,8.20
2023-08-15T00:52:20.328Z,8.50
2023-08-15T00:54:48.520Z,8.80
2023-08-15T00:57:16.258Z,9.50
2023-08-15T00:59:44.842Z,8.80
2023-08-15T01:02:12.897Z,9.00
2023-08-15T01:04:40.491Z,9.10
2023-08-15T01:07:10.382Z,10.00
2023-08-15T01:09:38.762Z,9.80
2023-08-15T01:12:26.405Z,9.10
2023-08-15T01:14:56.510Z,8.00
2023-08-15T01:17:28.191Z,9.80
2023-08-15T01:22:24.695Z,9.10
2023-08-15T01:24:52.049Z,8.20
2023-08-15T01:27:20.007Z,9.40
2023-08-15T01:29:47.932Z,8.40
2023-08-15T01:32:29.411Z,8.90
2023-08-15T01:35:32.996Z,11.00
2023-08-15T01:38:16.499Z,9.60
2023-08-15T01:40:44.017Z,9.40
2023-08-15T01:43:11.691Z,11.40
2023-08-15T01:45:39.153Z,11.30
2023-08-15T01:48:07.203Z,11.00
2023-08-15T01:50:34.602Z,11.90
2023-08-15T01:53:03.382Z,11.80
2023-08-15T01:55:30.869Z,11.40
2023-08-15T01:57:58.231Z,10.50
2023-08-15T02:00:25.623Z,10.20
2023-08-15T02:02:53.048Z,10.70
2023-08-15T02:05:20.646Z,9.50
2023-08-15T02:07:48.089Z,10.40
2023-08-15T02:10:15.544Z,10.80
2023-08-15T02:12:42.909Z,9.70
2023-08-15T02:15:10.344Z,12.20
2023-08-15T02:17:37.730Z,11.40
2023-08-15T02:20:06.308Z,12.70
2023-08-15T02:22:33.783Z,14.00
2023-08-15T02:25:01.168Z,13.90
2023-08-15T02:27:28.544Z,12.90
2023-08-15T02:29:56.062Z,12.90
2023-08-15T02:32:23.485Z,12.70
2023-08-15T02:34:53.162Z,13.10
2023-08-15T02:37:20.646Z,12.80
2023-08-15T02:39:48.388Z,12.30
2023-08-15T02:42:15.844Z,10.30
2023-08-15T02:44:43.775Z,9.90
2023-08-15T02:47:11.113Z,10.70
2023-08-15T02:49:39.838Z,10.60
2023-08-15T02:52:07.298Z,10.00
2023-08-15T02:54:34.669Z,9.10
2023-08-15T02:57:02.267Z,9.30
2023-08-15T02:59:29.637Z,8.10
2023-08-15T03:01:57.063Z,8.20
2023-08-15T03:04:24.584Z,7.50
2023-08-15T03:06:52.048Z,9.30
2023-08-15T03:09:19.411Z,10.20
2023-08-15T03:11:46.810Z,8.50
2023-08-15T03:14:14.518Z,8.90
2023-08-15T03:16:42.000Z,9.40
2023-08-15T03:19:09.433Z,9.60
2023-08-15T03:21:36.822Z,9.70
2023-08-15T03:24:04.570Z,9.20
2023-08-15T03:26:31.989Z,9.00
2023-08-15T03:28:59.861Z,8.90
2023-08-15T03:31:29.244Z,10.40
2023-08-15T03:33:57.550Z,9.00
2023-08-15T03:36:25.134Z,8.60
2023-08-15T03:38:53.917Z,9.00
2023-08-15T03:41:21.820Z,9.70
2023-08-15T03:47:06.727Z,8.40
2023-08-15T03:49:35.424Z,8.50
2023-08-15T03:52:04.434Z,8.30
2023-08-15T03:54:33.041Z,8.70
2023-08-15T03:57:01.162Z,7.60
2023-08-15T03:59:28.757Z,7.20
2023-08-15T04:01:59.427Z,7.10
2023-08-15T04:04:27.641Z,7.40
2023-08-15T04:06:55.604Z,7.70
2023-08-15T04:09:22.930Z,8.20
2023-08-15T04:11:50.679Z,7.20
2023-08-15T04:14:18.024Z,7.00
2023-08-15T04:16:48.891Z,7.10
2023-08-15T04:19:17.287Z,6.60
2023-08-15T04:21:45.327Z,6.30
2023-08-15T04:24:12.902Z,6.70
2023-08-15T04:26:40.230Z,7.40
2023-08-15T04:29:07.604Z,6.20
2023-08-15T04:31:35.493Z,6.10
2023-08-15T04:34:02.966Z,6.40
2023-08-15T04:36:31.370Z,6.20
2023-08-15T04:38:59.021Z,5.50
2023-08-15T04:41:26.981Z,5.30
2023-08-15T04:43:54.765Z,5.70
2023-08-15T04:46:22.162Z,5.80
2023-08-15T04:48:49.696Z,5.30
2023-08-15T04:51:17.033Z,5.80
2023-08-15T04:53:44.741Z,5.30
2023-08-15T04:56:13.784Z,5.90
2023-08-15T04:58:41.212Z,5.40
2023-08-15T05:01:08.651Z,6.20
2023-08-15T05:03:36.776Z,5.60
2023-08-15T05:06:04.341Z,6.30
2023-08-15T05:08:31.696Z,6.50
2023-08-15T05:11:00.187Z,6.10
2023-08-15T05:13:27.992Z,7.50
2023-08-15T05:15:55.668Z,7.00
2023-08-15T05:18:23.350Z,6.50
2023-08-15T05:20:50.810Z,6.30
2023-08-15T05:23:18.674Z,6.20
2023-08-15T05:25:46.997Z,6.00
2023-08-15T05:28:15.747Z,7.10
2023-08-15T05:30:44.343Z,7.10
2023-08-15T05:33:12.713Z,7.00
2023-08-15T05:35:40.416Z,6.80
2023-08-15T05:38:07.705Z,7.50
2023-08-15T05:40:35.182Z,6.90
2023-08-15T05:43:03.527Z,6.90
2023-08-15T05:45:30.868Z,7.30
2023-08-15T05:48:00.631Z,7.10
2023-08-15T05:50:27.971Z,7.10
2023-08-15T05:52:55.291Z,7.20
2023-08-15T05:55:22.825Z,7.10
2023-08-15T05:57:50.255Z,6.40
2023-08-15T06:00:19.873Z,6.10
2023-08-15T06:02:47.250Z,6.60
2023-08-15T06:05:14.668Z,5.60
2023-08-15T06:07:45.111Z,5.80
2023-08-15T06:10:12.555Z,6.30
2023-08-15T06:12:40.050Z,6.10
2023-08-15T06:15:07.851Z,5.90
2023-08-15T06:17:35.445Z,6.00
2023-08-15T06:20:02.809Z,5.40
2023-08-15T06:22:30.119Z,5.80
2023-08-15T06:24:57.465Z,6.30
2023-08-15T06:27:24.937Z,6.00
2023-08-15T06:29:52.833Z,5.60
2023-08-15T06:32:30.248Z,6.40
2023-08-15T06:34:57.665Z,6.50
2023-08-15T06:37:25.108Z,6.40
2023-08-15T06:39:52.668Z,6.70
2023-08-15T06:42:19.984Z,7.60
2023-08-15T06:44:47.458Z,7.10
2023-08-15T06:47:15.181Z,7.10
2023-08-15T06:49:42.504Z,6.50
2023-08-15T06:52:09.881Z,6.30
2023-08-15T06:54:37.817Z,6.20
2023-08-15T06:57:08.660Z,6.00
2023-08-15T06:59:37.027Z,6.20
2023-08-15T07:02:07.131Z,5.90
2023-08-15T07:04:34.732Z,6.00
2023-08-15T07:07:02.118Z,7.30
2023-08-15T07:09:30.373Z,5.90
2023-08-15T07:11:57.865Z,5.50
2023-08-15T07:14:25.250Z,5.40
2023-08-15T07:16:52.858Z,5.30
2023-08-15T07:19:20.291Z,5.20
2023-08-15T07:21:47.922Z,5.70
2023-08-15T07:24:16.328Z,5.20
2023-08-15T07:26:44.296Z,5.40
2023-08-15T07:29:12.888Z,5.10
2023-08-15T07:31:40.308Z,4.80
2023-08-15T07:34:07.997Z,5.00
2023-08-15T07:36:35.815Z,4.80
2023-08-15T07:39:03.212Z,5.40
2023-08-15T07:41:31.191Z,5.30
2023-08-15T07:43:58.622Z,4.30
2023-08-15T07:46:25.949Z,5.20
2023-08-15T07:48:53.555Z,5.60
2023-08-15T07:51:20.946Z,5.30
2023-08-15T07:53:48.243Z,5.30
2023-08-15T07:56:15.860Z,5.10
2023-08-15T07:58:43.192Z,4.90
2023-08-15T08:01:10.591Z,4.80
2023-08-15T08:03:39.787Z,5.50
2023-08-15T08:06:12.230Z,5.50
2023-08-15T08:08:44.225Z,4.70
2023-08-15T08:11:11.885Z,4.90
2023-08-15T08:13:39.300Z,5.30
2023-08-15T08:16:06.725Z,5.10
2023-08-15T08:18:34.209Z,6.60
2023-08-15T08:21:02.075Z,4.80
2023-08-15T08:23:29.408Z,4.60
2023-08-15T08:25:57.822Z,4.30
2023-08-15T08:28:25.789Z,4.20
2023-08-15T08:30:53.159Z,3.80
2023-08-15T08:33:20.510Z,4.00
2023-08-15T08:35:47.905Z,4.10
2023-08-15T08:38:15.256Z,3.90
2023-08-15T08:40:43.355Z,3.80
2023-08-15T08:43:13.719Z,3.80
2023-08-15T08:45:42.545Z,4.20
2023-08-15T08:48:10.305Z,3.90
2023-08-15T08:50:37.892Z,4.10
2023-08-15T08:53:05.701Z,3.50
2023-08-15T08:55:34.487Z,3.80
2023-08-15T08:58:03.821Z,3.60
2023-08-15T09:00:33.158Z,3.50
2023-08-15T09:03:00.750Z,3.50
2023-08-15T09:05:28.711Z,3.70
2023-08-15T09:07:56.559Z,3.70
2023-08-15T09:10:24.320Z,3.50
2023-08-15T09:12:51.726Z,3.40
2023-08-15T09:15:19.548Z,3.70
2023-08-15T09:17:46.860Z,3.30
2023-08-15T09:20:18.564Z,3.70
2023-08-15T09:22:47.344Z,3.60
2023-08-15T09:25:21.248Z,3.40
2023-08-15T09:27:48.705Z,3.40
2023-08-15T09:30:18.114Z,3.40
2023-08-15T09:32:46.649Z,3.10
2023-08-15T09:35:15.648Z,3.20
2023-08-15T09:37:43.808Z,3.00
2023-08-15T09:40:13.283Z,2.80
2023-08-15T09:42:41.327Z,2.90
2023-08-15T09:45:09.961Z,3.20
2023-08-15T09:47:40.661Z,3.20
2023-08-15T09:52:40.360Z,3.20
2023-08-15T09:55:11.918Z,3.20
2023-08-15T09:57:40.036Z,3.20
2023-08-15T10:00:14.861Z,3.30
2023-08-15T10:02:56.920Z,3.80
2023-08-15T10:05:24.318Z,3.30
2023-08-15T10:07:52.034Z,3.30
2023-08-15T10:10:19.492Z,3.00
2023-08-15T10:12:47.251Z,3.40
2023-08-15T10:15:14.652Z,3.30
2023-08-15T10:17:42.398Z,3.00
2023-08-15T10:20:13.623Z,3.60
2023-08-15T10:22:41.149Z,3.50
2023-08-15T10:25:24.518Z,2.80
2023-08-15T10:27:53.187Z,2.60
2023-08-15T10:30:31.694Z,2.90
2023-08-15T10:33:12.718Z,3.10
2023-08-15T10:38:55.883Z,2.70
2023-08-15T10:41:35.345Z,2.60
2023-08-15T10:44:07.805Z,2.70
2023-08-15T10:46:36.634Z,2.60
2023-08-15T10:49:08.894Z,2.80
2023-08-15T10:51:40.226Z,2.60
2023-08-15T10:54:12.662Z,2.90
2023-08-15T10:56:41.123Z,2.90
2023-08-15T10:59:15.512Z,3.20
2023-08-15T11:01:44.614Z,2.90
2023-08-15T11:04:16.949Z,2.70
2023-08-15T11:06:48.487Z,2.70
2023-08-15T11:09:16.889Z,2.80
2023-08-15T11:11:45.478Z,3.10
2023-08-15T11:14:40.288Z,2.90
2023-08-15T11:17:09.272Z,2.70
2023-08-15T11:19:37.068Z,3.10
2023-08-15T11:22:04.515Z,2.90
2023-08-15T11:24:32.441Z,3.10
2023-08-15T11:27:00.087Z,2.70
2023-08-15T11:29:27.776Z,2.80
2023-08-15T11:31:59.960Z,2.60
2023-08-15T11:34:27.762Z,2.80
2023-08-15T11:36:55.164Z,2.50
2023-08-15T11:39:22.678Z,2.80
2023-08-15T11:41:53.471Z,2.40
2023-08-15T11:44:22.000Z,2.30
2023-08-15T11:46:54.877Z,2.80
2023-08-15T11:49:23.913Z,2.70
2023-08-15T11:51:52.271Z,2.30
2023-08-15T11:54:19.936Z,2.60
2023-08-15T11:56:51.655Z,2.60
2023-08-15T11:59:23.251Z,2.90
2023-08-15T12:01:50.779Z,2.90
2023-08-15T12:04:18.525Z,3.10
2023-08-15T12:06:46.029Z,2.70
2023-08-15T12:09:13.511Z,2.90
2023-08-15T12:11:41.004Z,2.50
2023-08-15T12:14:22.332Z,3.00
2023-08-15T12:16:49.869Z,2.60
2023-08-15T12:19:21.791Z,3.10
2023-08-15T12:21:54.185Z,2.80
2023-08-15T12:24:22.440Z,2.90
2023-08-15T12:26:49.812Z,3.00
2023-08-15T12:29:17.982Z,2.90
2023-08-15T12:31:46.335Z,2.80
2023-08-15T12:35:46.633Z,3.30
2023-08-15T12:38:14.418Z,2.90
2023-08-15T12:40:41.616Z,2.50
2023-08-15T12:43:08.695Z,2.60
2023-08-15T12:45:35.377Z,2.90
2023-08-15T12:48:02.575Z,2.70
2023-08-15T12:50:29.484Z,2.70
2023-08-15T12:52:56.995Z,4.30
2023-08-15T12:55:24.276Z,8.60
2023-08-15T12:57:51.170Z,8.60
2023-08-15T13:00:18.330Z,7.60
2023-08-15T13:02:45.318Z,4.10
2023-08-15T13:05:12.257Z,3.40
2023-08-15T13:07:39.486Z,3.40
2023-08-15T13:10:06.926Z,3.10
2023-08-15T13:12:33.932Z,3.50
2023-08-15T13:15:00.542Z,3.70
2023-08-15T13:17:27.490Z,3.30
2023-08-15T13:19:54.079Z,3.90
2023-08-15T13:22:20.912Z,4.00
2023-08-15T13:24:47.842Z,3.10
2023-08-15T13:27:14.962Z,2.90
2023-08-15T13:29:42.963Z,3.30
2023-08-15T13:32:11.200Z,3.20
2023-08-15T13:34:37.940Z,3.50
2023-08-15T13:37:04.692Z,3.40
2023-08-15T13:39:31.551Z,3.20
2023-08-15T13:41:58.606Z,3.40
2023-08-15T13:44:25.119Z,3.20
2023-08-15T13:46:51.803Z,3.30
2023-08-15T13:49:18.449Z,3.70
2023-08-15T13:51:45.601Z,3.70
2023-08-15T13:54:12.740Z,3.80
2023-08-15T13:56:39.401Z,3.40
2023-08-15T13:59:06.368Z,3.30
2023-08-15T14:01:34.013Z,3.30
2023-08-15T14:04:00.727Z,3.50
2023-08-15T14:06:28.923Z,3.70
2023-08-15T14:08:56.195Z,4.00
2023-08-15T14:11:22.968Z,3.60
2023-08-15T14:13:49.828Z,3.30
2023-08-15T14:16:16.705Z,3.70
2023-08-15T14:18:43.399Z,4.30
2023-08-15T14:21:13.371Z,3.50
2023-08-15T14:23:44.537Z,3.70
2023-08-15T14:26:11.510Z,3.60
2023-08-15T14:28:38.213Z,3.70
2023-08-15T14:31:05.682Z,3.40
2023-08-15T14:33:32.484Z,3.60
2023-08-15T14:35:59.067Z,3.20
2023-08-15T14:38:29.025Z,4.00
2023-08-15T14:40:55.681Z,4.20
2023-08-15T14:43:22.482Z,3.70
2023-08-15T14:45:49.290Z,3.70
2023-08-15T14:48:16.438Z,3.90
2023-08-15T14:50:43.342Z,3.60
2023-08-15T14:53:10.090Z,3.40
2023-08-15T14:55:36.682Z,3.30
2023-08-15T14:58:04.689Z,3.50
2023-08-15T15:00:32.022Z,3.30
2023-08-15T15:02:58.869Z,4.00
2023-08-15T15:05:25.686Z,3.80
2023-08-15T15:07:52.564Z,4.00
2023-08-15T15:10:19.355Z,3.50
2023-08-15T15:12:47.518Z,3.50
2023-08-15T15:15:14.642Z,3.90
2023-08-15T15:17:41.497Z,3.40
2023-08-15T15:20:08.656Z,3.60
2023-08-15T15:22:35.366Z,3.40
2023-08-15T15:25:01.958Z,3.60
2023-08-15T15:27:28.634Z,3.60
2023-08-15T15:29:55.373Z,3.70
2023-08-15T15:32:22.194Z,3.50
2023-08-15T15:34:49.537Z,4.00
2023-08-15T15:37:16.089Z,3.50
2023-08-15T15:39:43.598Z,4.00
2023-08-15T15:42:10.346Z,3.50
2023-08-15T15:44:37.209Z,3.50
2023-08-15T15:47:04.332Z,4.00
2023-08-15T15:49:31.126Z,3.70
2023-08-15T15:51:58.052Z,3.70
2023-08-15T15:54:24.623Z,3.90
2023-08-15T15:56:51.253Z,4.10
2023-08-15T15:59:18.056Z,4.60
2023-08-15T16:01:44.706Z,4.80
2023-08-15T16:04:12.181Z,5.40
2023-08-15T16:06:38.845Z,5.40
2023-08-15T16:09:05.552Z,4.80
2023-08-15T16:11:32.655Z,5.50
2023-08-15T16:13:59.299Z,5.70
2023-08-15T16:16:26.040Z,5.80
2023-08-15T16:18:53.557Z,6.00
2023-08-15T16:21:22.061Z,7.90
2023-08-15T16:23:49.297Z,9.60
2023-08-15T16:26:17.994Z,11.30
2023-08-15T16:28:45.749Z,11.70
2023-08-15T16:31:12.690Z,10.10
2023-08-15T16:33:39.485Z,10.60
2023-08-15T16:36:06.144Z,13.40
2023-08-15T16:38:32.897Z,10.50
2023-08-15T16:40:59.537Z,9.00
2023-08-15T16:43:27.459Z,38.30
2023-08-15T16:45:53.940Z,26.50
2023-08-15T16:48:20.629Z,18.70
2023-08-15T16:50:47.276Z,16.90
2023-08-15T16:53:13.831Z,32.70
2023-08-15T16:55:40.379Z,24.90
2023-08-15T16:58:07.105Z,17.70
2023-08-15T17:00:33.926Z,13.30
2023-08-15T17:03:00.906Z,19.30
2023-08-15T17:05:27.883Z,25.20
2023-08-15T17:07:54.608Z,15.30
2023-08-15T17:10:21.521Z,18.80
2023-08-15T17:12:48.377Z,32.10
2023-08-15T17:15:16.078Z,27.40
2023-08-15T17:17:42.985Z,19.20
2023-08-15T17:20:10.799Z,20.10
2023-08-15T17:22:38.441Z,19.20
2023-08-15T17:25:06.023Z,17.80
2023-08-15T17:27:32.701Z,17.00
2023-08-15T17:29:59.408Z,24.10
2023-08-15T17:32:26.851Z,29.60
2023-08-15T17:34:53.670Z,23.10
2023-08-15T17:37:20.200Z,19.60
2023-08-15T17:39:46.789Z,19.10
2023-08-15T17:42:13.604Z,17.20
2023-08-15T17:44:40.375Z,16.90
2023-08-15T17:47:07.537Z,17.10
2023-08-15T17:49:34.356Z,17.80
2023-08-15T17:52:00.957Z,17.30
2023-08-15T17:54:27.693Z,17.50
2023-08-15T17:56:54.356Z,17.10
2023-08-15T17:59:21.034Z,19.20
2023-08-15T18:01:48.124Z,22.60
2023-08-15T18:04:15.154Z,24.30
2023-08-15T18:06:41.841Z,23.00
2023-08-15T18:09:09.905Z,29.30
2023-08-15T18:11:36.691Z,28.80
2023-08-15T18:14:04.631Z,26.10
2023-08-15T18:16:31.569Z,22.40
2023-08-15T18:18:58.292Z,20.70
2023-08-15T18:21:24.939Z,19.50
2023-08-15T18:23:51.549Z,19.70
2023-08-15T18:26:18.504Z,19.90
2023-08-15T18:28:45.359Z,20.30
2023-08-15T18:31:12.124Z,20.00
2023-08-15T18:33:39.074Z,20.10
2023-08-15T18:36:05.688Z,19.20
2023-08-15T18:38:34.100Z,19.60
2023-08-15T18:41:01.659Z,19.80
2023-08-15T18:43:28.349Z,19.90
2023-08-15T18:45:55.068Z,21.30
2023-08-15T18:48:23.790Z,19.10
2023-08-15T18:50:50.496Z,19.40
2023-08-15T18:53:17.242Z,19.50
2023-08-15T18:55:44.151Z,18.10
2023-08-15T18:58:10.936Z,18.80
2023-08-15T19:00:38.306Z,17.80
2023-08-15T19:03:05.517Z,17.10
2023-08-15T19:05:32.301Z,17.20
2023-08-15T19:07:59.372Z,16.40
2023-08-15T19:10:27.872Z,18.60
2023-08-15T19:12:54.688Z,17.50
2023-08-15T19:15:21.932Z,19.20
2023-08-15T19:17:50.406Z,19.00
2023-08-15T19:20:19.024Z,17.70
2023-08-15T19:22:46.167Z,20.10
2023-08-15T19:25:13.830Z,18.10
2023-08-15T19:27:40.403Z,18.30
2023-08-15T19:30:07.857Z,18.60
2023-08-15T19:32:34.816Z,18.30
2023-08-15T19:35:01.906Z,17.20
2023-08-15T19:37:36.913Z,17.50
2023-08-15T19:40:07.058Z,17.10
2023-08-15T19:42:37.876Z,17.80
2023-08-15T19:45:05.130Z,18.20
2023-08-15T19:47:31.970Z,18.40
2023-08-15T19:49:58.786Z,17.80
2023-08-15T19:52:25.873Z,18.60
2023-08-15T19:54:52.858Z,18.40
2023-08-15T19:57:19.511Z,18.30
2023-08-15T19:59:46.113Z,19.40
2023-08-15T20:02:14.468Z,19.50
2023-08-15T20:04:41.726Z,19.00
2023-08-15T20:07:08.423Z,19.80
2023-08-15T20:09:35.149Z,19.40
2023-08-15T20:12:02.444Z,19.40
2023-08-15T20:14:29.375Z,19.40
2023-08-15T20:16:56.093Z,20.20
2023-08-15T20:19:22.717Z,19.30
2023-08-15T20:21:51.259Z,19.50
2023-08-15T20:24:17.936Z,19.30
2023-08-15T20:26:46.097Z,19.40
2023-08-15T20:29:12.922Z,18.40
2023-08-15T20:31:39.767Z,18.90
2023-08-15T20:34:07.010Z,18.70
2023-08-15T20:36:33.819Z,17.40
2023-08-15T20:39:01.504Z,18.60
2023-08-15T20:41:28.213Z,18.60
2023-08-15T20:43:55.002Z,18.70
2023-08-15T20:46:22.087Z,19.40
2023-08-15T20:48:48.749Z,18.40
2023-08-15T20:51:15.338Z,19.00
2023-08-15T20:53:41.915Z,19.20
2023-08-15T20:56:10.323Z,18.10
2023-08-15T20:58:37.041Z,18.80
2023-08-15T21:01:03.738Z,18.90
2023-08-15T21:03:31.351Z,18.00
2023-08-15T21:05:58.421Z,19.30
2023-08-15T21:08:25.137Z,18.80
2023-08-15T21:10:51.728Z,17.90
2023-08-15T21:13:18.457Z,19.30
2023-08-15T21:15:45.550Z,17.80
2023-08-15T21:18:12.196Z,17.90
2023-08-15T21:20:41.236Z,18.60
2023-08-15T21:23:07.931Z,18.40
2023-08-15T21:25:35.518Z,17.80
2023-08-15T21:28:02.379Z,17.30
2023-08-15T21:30:29.091Z,17.50
2023-08-15T21:32:55.794Z,17.60
2023-08-15T21:35:22.594Z,18.30
2023-08-15T21:37:49.177Z,17.20
2023-08-15T21:40:16.027Z,17.20
2023-08-15T21:42:42.993Z,17.70
2023-08-15T21:45:09.903Z,18.70
2023-08-15T21:47:36.606Z,17.70
2023-08-15T21:50:04.071Z,18.00
2023-08-15T21:52:30.870Z,19.20
2023-08-15T21:54:57.590Z,18.40
2023-08-15T21:57:24.613Z,18.60
2023-08-15T21:59:51.415Z,18.40
2023-08-15T22:02:18.046Z,18.60
2023-08-15T22:04:46.001Z,17.40
2023-08-15T22:07:12.505Z,18.20
2023-08-15T22:09:39.545Z,17.70
2023-08-15T22:12:06.409Z,18.10
2023-08-15T22:14:33.096Z,20.80
2023-08-15T22:16:59.658Z,21.90
2023-08-15T22:19:26.366Z,23.20
2023-08-15T22:21:53.061Z,22.00
2023-08-15T22:24:19.676Z,20.40
2023-08-15T22:26:47.882Z,21.10
2023-08-15T22:29:16.236Z,18.60
2023-08-15T22:31:42.935Z,19.90
2023-08-15T22:34:09.573Z,19.10
2023-08-15T22:36:36.284Z,18.00
2023-08-15T22:39:03.034Z,19.60
2023-08-15T22:41:29.699Z,20.00
2023-08-15T22:43:56.278Z,19.00
2023-08-15T22:46:22.853Z,20.60
2023-08-15T22:48:49.613Z,21.50
2023-08-15T22:51:16.163Z,21.40
2023-08-15T22:53:45.272Z,21.70
2023-08-15T22:56:12.154Z,19.60
2023-08-15T22:58:38.840Z,19.40
2023-08-15T23:01:06.319Z,20.10
2023-08-15T23:03:33.344Z,20.10
2023-08-15T23:06:05.242Z,19.70
2023-08-15T23:08:32.948Z,18.80
2023-08-15T23:10:59.522Z,18.50
2023-08-15T23:13:26.150Z,18.30
2023-08-15T23:15:52.825Z,18.90
2023-08-15T23:18:19.534Z,18.50
2023-08-15T23:20:46.070Z,18.30
2023-08-15T23:23:14.036Z,18.80
2023-08-15T23:25:40.634Z,19.60
2023-08-15T23:28:07.899Z,21.40
2023-08-15T23:30:35.883Z,22.10
2023-08-15T23:33:03.856Z,21.50
2023-08-15T23:35:30.639Z,22.10
2023-08-15T23:37:57.158Z,22.80
2023-08-15T23:40:23.738Z,23.40
2023-08-15T23:42:50.308Z,24.20
2023-08-15T23:45:17.054Z,25.10
2023-08-15T23:47:43.780Z,24.60
2023-08-15T23:50:12.250Z,24.90
2023-08-15T23:52:39.010Z,25.70
2023-08-15T23:55:06.320Z,25.90
2023-08-15T23:57:33.047Z,24.40
2023-08-15T23:59:59.563Z,24.10
